Terminal Aerodrome Forecast
Issued by NWS

Home | Current Version | Previous Version | Text Only | Print | Product List | Glossary On
Versions: 1 2 3 4 5 6 7 8 9 10 11 12 13 14 15 16 17 18
000
FTUS41 KBTV 012300
TAFMPV
TAF
KMPV 012320Z 0200/0224 00000KT P6SM SCT040
     FM020300 00000KT 5SM BR OVC025
     FM020700 00000KT 1/4SM FG OVC001
     FM021300 00000KT 2SM BR OVC012
     FM021500 VRB03KT P6SM BKN040
     FM022000 13004KT P6SM SCT200=

USA.gov is the U.S. government's official web portal to all federal, state and local government web resources and services.